ヌーク の空港の天気 - METARとTAF

ヌーク空港 ( BGGH / GOH ) - グリーンランド ヌーク
飛行場実況気象(Metar)
観測時間06/17 21:50 WGST (06/17 23:50 UTC)
風向・風速南南西 2m/s
視程-
天気現象
-
気温12℃
湿度67%
気圧1013hPa
METARBGGH 172350Z AUTO 20004KT 9999NDV ///002/// ///002/// 12/06 Q1013
過去の天気等 Google飛行場航空写真 Wunderground天気予報

過去48時間のMETAR

飛行場予報(TAF)
発表時間: 6/17 14:58 WGST (6/17 16:58 UTC)
予報対象時間: 17日16時 WGST ~ 17日21時 WGST
風向・風速北 3m/s
視程10km以上
少しの雲 雲底高度 6100m
TAF BGGH 171658Z 1718/1723 36006KT 9999 FEW200